Carcassonne Airport

LFMK · Aude, Occitanie, 法国

罗盘
风向 的 风向 的 风向 到 风向 270° Carcassonne Airport 10/28
风: 8 kt, 3 beaufort

8 kt

1 kt
改变
0 1.000 2.000 3.000 4.000 5.000
FEW 3.100 ft
METAR LFMK 282200Z AUTO 27008KT 240V300 9999 FEW031 09/06 Q1019

METAR Carcassonne Airport - LFMK/CCF

Carcassonne Airport是,法国中的中型机场。 该机场有2条跑道: 10/28 和 9/27. 该领域的国际民航组织标志是LFMK 它的国际航空运输协会代码是CCF.

这份报告是针对2022年11月28日 23:00, 当地时间在Carcassonne Airport进行的。

机场观察

风向为270°,速度为8 kt。 风向在240°和300°之间变化。

可见度为10 km 或者更多。

有几云在3.100 ft的高度。 没有观察到天花板。

温度为9 °C,阵风为5 °C。 露点为6 °C,相对湿度为82%。 海平面上的气压为1019 hPa (QNH)。

白天

今天,太阳从07:59升起,在17:17降落。 这适用于Carcassonne Airport,世界夏令时可能有所不同。 当地时间与世界标准时间之间的时差为+1 小时。 当前,没有夏令时有效。

公司介绍

在这个机场,你可以找到飞行俱乐部。 本场上唯一已知的公司是Aéroclub de Pilotes Audois。

体会

到Vliegles.nl去找飞行课程,跳伞和其他飞行体验。 浏览页面,了解Carcassonne Airport附近所有可用的活动。 你也可以使用搜索功能来寻找你所在地附近的特定飞行课程、跳伞或其他飞行体验。

跑道

Id 标题 侧风 逆风 侧风 %
10/28 097°-277° 8 kt 12 %
9/27 097°-277° 8 kt 12 %

逆风成分最大的方向会被突出显示,并用于横风计算。 这并不一定意味着这个方向在使用。

乌云

3.100 ft FEW 几云

温度 & 天气

温度 9 °C
露点 6 °C
相对湿度 82%
风寒 5 °C
Kp-index 4 (0-9)

白天

日出
07:59 (8:47)
中午
12:38
日落
17:17

小工具

你想在你的网站上有一个关于Carcassonne Airport的当前航空天气(METAR)的小部件吗?

显示HTML代码

我们和第三方通过cookies跟踪您在我们网站上的互联网行为。如果你继续,我们认为你同意我们的饼干政策